Time;durP1;ratioP1;P1;durP2;ratioP2;P2;SDS_P1;SDS_P2;PMS_P1;PMS_P2;Temp;Humidity;BMP_temperature;BMP_pressure;BME280_temperature;BME280_humidity;BME280_pressure;Samples;Min_cycle;Max_cycle;Signal;HPM_P1;HPM_P2
2021/07/01 00:07:23;;;;;;;3.80;2.58;;;26.00;23.30;;;;;;20842151;28;20054;-61
2021/07/01 00:17:25;;;;;;;6.25;3.55;;;25.70;23.50;;;;;;20841457;28;20069;-61
2021/07/01 00:27:28;;;;;;;6.40;3.05;;;25.60;23.60;;;;;;20840457;28;20060;-62
2021/07/01 00:37:32;;;;;;;7.97;6.18;;;25.40;24.00;;;;;;20839875;28;20075;-67
2021/07/01 00:47:35;;;;;;;10.38;6.60;;;25.30;24.30;;;;;;20839563;28;20057;-62
2021/07/01 00:57:37;;;;;;;4.15;2.50;;;25.20;24.20;;;;;;20819670;28;20052;-61
2021/07/01 01:07:40;;;;;;;7.57;5.03;;;25.10;24.60;;;;;;20837859;28;20128;-60
2021/07/01 01:17:44;;;;;;;8.57;6.63;;;25.10;24.90;;;;;;20820496;28;20049;-69
2021/07/01 01:27:46;;;;;;;4.95;2.70;;;24.90;25.60;;;;;;20836171;28;20049;-67
2021/07/01 01:37:50;;;;;;;5.05;2.83;;;25.00;26.00;;;;;;20835809;28;20111;-68
2021/07/01 01:47:57;;;;;;;6.10;2.85;;;24.90;26.70;;;;;;20834199;28;20548;-68
2021/07/01 01:58:04;;;;;;;7.47;3.40;;;24.80;25.80;;;;;;20834813;28;20098;-60
2021/07/01 02:08:14;;;;;;;5.53;3.35;;;24.70;25.70;;;;;;20832070;28;20092;-63
2021/07/01 02:18:19;;;;;;;7.38;3.95;;;24.60;25.90;;;;;;20831606;28;20056;-62
2021/07/01 02:28:31;;;;;;;4.85;3.17;;;24.50;26.70;;;;;;20831150;28;20049;-61
2021/07/01 02:38:39;;;;;;;7.63;3.50;;;24.50;26.70;;;;;;20831011;28;20080;-65
2021/07/01 02:48:44;;;;;;;5.93;3.47;;;24.60;26.20;;;;;;20844922;28;20084;-65
2021/07/01 02:58:49;;;;;;;5.20;3.38;;;24.40;26.10;;;;;;20837203;28;20050;-67
2021/07/01 03:08:54;;;;;;;6.47;3.38;;;24.20;26.00;;;;;;20847661;28;20103;-68
2021/07/01 03:18:59;;;;;;;5.10;2.88;;;24.00;26.80;;;;;;20845835;28;20132;-62
2021/07/01 03:29:10;;;;;;;9.18;3.80;;;23.90;26.70;;;;;;20844745;28;20050;-61
2021/07/01 03:39:14;;;;;;;6.90;3.53;;;23.80;26.70;;;;;;20827123;28;20077;-62
2021/07/01 03:49:21;;;;;;;6.88;4.03;;;23.60;27.10;;;;;;20843679;28;20477;-64
2021/07/01 03:59:36;;;;;;;8.88;3.53;;;23.60;27.00;;;;;;20843025;28;20524;-64
2021/07/01 04:09:45;;;;;;;7.05;3.20;;;23.60;27.20;;;;;;20842633;28;20485;-65
2021/07/01 04:20:06;;;;;;;10.13;3.78;;;23.40;27.90;;;;;;20842215;28;20482;-69
2021/07/01 04:30:14;;;;;;;9.65;3.25;;;23.20;29.10;;;;;;20840769;28;20059;-60
2021/07/01 04:40:29;;;;;;;10.63;3.42;;;23.10;30.20;;;;;;20824066;28;20050;-62
2021/07/01 04:50:44;;;;;;;10.75;4.70;;;22.90;31.20;;;;;;20823221;28;20410;-61
2021/07/01 05:00:57;;;;;;;4.55;3.00;;;22.90;31.60;;;;;;20838111;28;20049;-66
2021/07/01 05:11:12;;;;;;;5.95;2.80;;;22.70;33.70;;;;;;20838430;28;20391;-62
2021/07/01 05:21:16;;;;;;;3.70;2.28;;;22.30;34.40;;;;;;20837398;28;20069;-67
2021/07/01 05:31:18;;;;;;;5.77;2.50;;;21.80;35.20;;;;;;20837041;28;20414;-66
2021/07/01 05:41:23;;;;;;;5.07;2.97;;;21.50;36.00;;;;;;20837035;28;20046;-63
2021/07/01 05:51:29;;;;;;;8.35;3.10;;;21.50;36.10;;;;;;20819073;28;20394;-60
2021/07/01 06:01:35;;;;;;;5.97;3.25;;;21.50;36.20;;;;;;20852718;28;20045;-60
2021/07/01 06:11:37;;;;;;;10.52;4.07;;;21.60;36.40;;;;;;20832111;28;20072;-59
2021/07/01 06:21:42;;;;;;;6.28;3.53;;;21.80;37.10;;;;;;20831272;28;20064;-60
2021/07/01 06:31:45;;;;;;;8.10;4.00;;;22.10;39.10;;;;;;20831108;28;20045;-60
2021/07/01 06:41:46;;;;;;;9.63;3.95;;;22.50;44.80;;;;;;20829867;28;20049;-62
2021/07/01 06:51:53;;;;;;;7.68;3.83;;;22.90;51.40;;;;;;20829917;28;20061;-67
2021/07/01 07:01:56;;;;;;;10.15;3.95;;;23.10;54.00;;;;;;20828969;28;20083;-59
2021/07/01 07:11:58;;;;;;;10.87;4.50;;;23.70;53.90;;;;;;20830355;28;20409;-64
2021/07/01 07:22:03;;;;;;;7.43;3.72;;;24.60;52.40;;;;;;20828646;28;20045;-60
2021/07/01 07:32:07;;;;;;;12.85;5.18;;;25.40;50.40;;;;;;20828064;28;20512;-61
2021/07/01 07:42:11;;;;;;;8.68;3.65;;;26.20;48.70;;;;;;20828432;28;20056;-62
2021/07/01 07:52:15;;;;;;;9.38;3.90;;;26.60;47.20;;;;;;20840309;28;20060;-59
2021/07/01 08:02:50;;;;;;;6.00;4.05;;;26.90;45.10;;;;;;20842426;28;20436;-67
2021/07/01 08:12:56;;;;;;;8.93;3.70;;;27.10;44.10;;;;;;20840303;28;20093;-65
2021/07/01 08:22:58;;;;;;;7.95;3.80;;;27.30;42.90;;;;;;20840990;28;20080;-59
2021/07/01 08:33:00;;;;;;;8.98;3.80;;;27.80;42.60;;;;;;20840154;28;20092;-65
2021/07/01 08:43:07;;;;;;;11.15;4.10;;;28.30;41.70;;;;;;20839226;28;20497;-63
2021/07/01 08:53:36;;;;;;;10.40;4.07;;;28.70;40.10;;;;;;20837915;28;20049;-64
2021/07/01 09:03:46;;;;;;;10.13;4.05;;;29.30;38.60;;;;;;20839100;28;20212;-67
2021/07/01 09:13:49;;;;;;;9.55;4.78;;;29.60;38.80;;;;;;20837400;28;20413;-64
2021/07/01 09:23:53;;;;;;;4.80;3.70;;;29.70;37.50;;;;;;20792664;28;20053;-62
2021/07/01 09:33:55;;;;;;;12.07;4.28;;;29.80;37.20;;;;;;20834800;28;20081;-66
2021/07/01 09:44:01;;;;;;;6.78;3.67;;;30.30;35.40;;;;;;20834227;28;20485;-66
2021/07/01 09:54:04;;;;;;;6.55;3.78;;;30.60;34.20;;;;;;20805081;28;20097;-60
2021/07/01 10:04:08;;;;;;;8.98;4.10;;;30.70;34.30;;;;;;20832608;28;20041;-67
2021/07/01 10:14:14;;;;;;;8.88;3.60;;;30.80;32.70;;;;;;20833042;28;20500;-66
2021/07/01 10:24:22;;;;;;;9.10;3.67;;;31.10;30.80;;;;;;20833886;28;20061;-60
2021/07/01 10:34:25;;;;;;;8.05;3.78;;;31.30;25.50;;;;;;20830185;28;20140;-60
2021/07/01 10:44:29;;;;;;;5.63;3.22;;;31.90;24.20;;;;;;20831043;28;20049;-60
2021/07/01 10:54:32;;;;;;;9.65;3.50;;;32.10;24.60;;;;;;20830372;28;20417;-60
2021/07/01 11:04:53;;;;;;;7.10;3.42;;;32.20;24.40;;;;;;20831283;28;20081;-61
2021/07/01 11:14:56;;;;;;;5.47;3.40;;;32.20;24.40;;;;;;20830322;28;20053;-60
2021/07/01 11:24:57;;;;;;;10.07;3.13;;;32.30;23.80;;;;;;20921884;28;20079;-62
2021/07/01 11:34:58;;;;;;;4.30;3.30;;;32.30;23.20;;;;;;20926960;28;20140;-64
2021/07/01 11:45:00;;;;;;;4.63;2.47;;;32.20;23.00;;;;;;20926675;28;20056;-67
2021/07/01 11:55:02;;;;;;;6.00;2.53;;;32.20;23.30;;;;;;20926421;28;20059;-61
2021/07/01 12:05:06;;;;;;;19.55;3.40;;;32.30;23.60;;;;;;20927768;28;20109;-68
2021/07/01 12:15:09;;;;;;;10.05;2.90;;;32.50;23.30;;;;;;20929391;28;20397;-67
2021/07/01 12:25:25;;;;;;;20.35;18.13;;;32.30;22.40;;;;;;20924383;28;20485;-69
2021/07/01 12:35:43;;;;;;;6.38;2.50;;;32.70;22.60;;;;;;20927094;28;20107;-67
2021/07/01 12:45:44;;;;;;;5.22;2.28;;;33.00;21.80;;;;;;20932482;28;20049;-64
2021/07/01 12:55:45;;;;;;;5.53;2.58;;;32.90;22.10;;;;;;20923538;28;20053;-66
2021/07/01 13:05:55;;;;;;;7.97;5.00;;;32.90;21.80;;;;;;20920496;28;20504;-66
2021/07/01 13:16:06;;;;;;;3.70;2.10;;;33.10;20.60;;;;;;20918594;28;20056;-65
2021/07/01 13:26:14;;;;;;;;;;;33.10;21.00;;;;;;20918227;28;20060;-67
2021/07/01 13:36:15;;;;;;;6.57;3.45;;;33.10;21.30;;;;;;20916822;28;19921;-68
2021/07/01 13:46:22;;;;;;;5.47;1.98;;;33.10;21.20;;;;;;20915831;28;20400;-60
2021/07/01 13:56:24;;;;;;;4.05;2.33;;;33.20;20.40;;;;;;20916146;28;20049;-64
2021/07/01 14:06:26;;;;;;;4.57;2.40;;;33.20;20.70;;;;;;20896850;28;20056;-67
2021/07/01 14:16:33;;;;;;;4.50;2.22;;;33.20;19.70;;;;;;20914612;28;20085;-67
2021/07/01 14:26:53;;;;;;;5.30;2.60;;;33.20;18.80;;;;;;20913947;28;20500;-67
2021/07/01 14:36:56;;;;;;;4.93;2.60;;;33.50;17.50;;;;;;20913631;28;20048;-67
2021/07/01 14:46:58;;;;;;;3.50;2.13;;;33.40;18.70;;;;;;20913122;28;20539;-69
2021/07/01 14:57:02;;;;;;;2.95;1.70;;;33.50;19.00;;;;;;20912009;28;20496;-67
2021/07/01 15:07:17;;;;;;;5.07;2.92;;;33.50;18.20;;;;;;20912042;28;20447;-67
2021/07/01 15:17:19;;;;;;;4.38;2.92;;;33.60;18.50;;;;;;20912546;28;20512;-64
2021/07/01 15:27:26;;;;;;;4.47;4.03;;;33.60;18.40;;;;;;20910548;28;20451;-59
2021/07/01 15:37:27;;;;;;;4.95;3.00;;;33.50;18.80;;;;;;20911429;28;20089;-68
2021/07/01 15:47:29;;;;;;;6.70;3.58;;;33.50;18.50;;;;;;20910604;28;20045;-62
2021/07/01 15:57:30;;;;;;;3.25;2.20;;;33.60;17.70;;;;;;20909848;28;20085;-67
2021/07/01 16:07:32;;;;;;;4.05;2.75;;;33.40;17.60;;;;;;20913285;28;20103;-63
2021/07/01 16:17:35;;;;;;;4.07;1.95;;;33.50;17.90;;;;;;20923757;28;20061;-64
2021/07/01 16:27:37;;;;;;;6.25;2.42;;;33.50;17.70;;;;;;20922669;28;20056;-65
2021/07/01 16:37:39;;;;;;;2.65;2.10;;;33.40;18.00;;;;;;20922794;28;20504;-67
2021/07/01 16:47:49;;;;;;;4.00;2.05;;;33.40;17.80;;;;;;20921396;28;20508;-60
2021/07/01 16:58:00;;;;;;;3.13;2.35;;;33.50;18.30;;;;;;20920470;28;20103;-68
2021/07/01 17:08:01;;;;;;;3.45;2.10;;;33.40;17.80;;;;;;20919524;28;20048;-59
2021/07/01 17:18:04;;;;;;;2.83;1.80;;;33.30;17.40;;;;;;20917707;28;20082;-63
2021/07/01 17:28:05;;;;;;;5.88;2.10;;;33.20;17.20;;;;;;20917496;28;20091;-60
2021/07/01 17:38:07;;;;;;;3.20;2.05;;;33.20;17.30;;;;;;20916713;28;20500;-57
2021/07/01 17:48:09;;;;;;;3.45;2.17;;;33.10;17.60;;;;;;20898241;28;20048;-65
2021/07/01 17:58:10;;;;;;;2.83;2.17;;;33.00;16.80;;;;;;20915683;28;20128;-64
2021/07/01 18:08:12;;;;;;;3.05;2.72;;;32.90;17.50;;;;;;20914872;28;20045;-67
2021/07/01 18:18:13;;;;;;;4.53;2.50;;;32.90;17.70;;;;;;20914621;28;20045;-67
2021/07/01 18:28:15;;;;;;;3.03;2.15;;;32.70;17.70;;;;;;20913882;28;20049;-65
2021/07/01 18:38:17;;;;;;;4.47;3.15;;;32.60;17.90;;;;;;20914596;28;20056;-67
2021/07/01 18:48:19;;;;;;;6.53;3.22;;;32.50;17.90;;;;;;20912404;28;20438;-68
2021/07/01 18:58:20;;;;;;;6.60;2.42;;;32.30;18.00;;;;;;20911863;28;20385;-66
2021/07/01 19:08:22;;;;;;;6.70;3.22;;;32.10;17.70;;;;;;20911766;28;20500;-65
2021/07/01 19:18:24;;;;;;;4.35;2.97;;;32.00;18.10;;;;;;20911268;28;20114;-65
2021/07/01 19:28:26;;;;;;;5.70;2.47;;;31.80;18.30;;;;;;20910328;28;20404;-60
2021/07/01 19:38:29;;;;;;;4.47;2.25;;;31.60;18.30;;;;;;20910267;28;20045;-67
2021/07/01 19:48:31;;;;;;;3.55;2.50;;;31.30;18.30;;;;;;20923256;28;20401;-64
2021/07/01 19:58:35;;;;;;;6.22;3.35;;;31.10;18.80;;;;;;20924424;28;20055;-66
2021/07/01 20:08:37;;;;;;;4.13;2.78;;;30.90;19.10;;;;;;20924050;28;20140;-67
2021/07/01 20:18:38;;;;;;;5.13;3.30;;;30.60;19.20;;;;;;20924107;28;20049;-66
2021/07/01 20:28:40;;;;;;;3.75;2.72;;;30.50;19.30;;;;;;20924383;28;20469;-67
2021/07/01 20:38:43;;;;;;;8.27;3.78;;;30.20;18.80;;;;;;20922982;28;20053;-68
2021/07/01 20:48:45;;;;;;;5.10;3.78;;;30.10;19.80;;;;;;20922429;28;20095;-62
2021/07/01 20:58:47;;;;;;;8.35;6.68;;;30.00;19.40;;;;;;20903286;28;20087;-67
2021/07/01 21:08:52;;;;;;;4.85;2.70;;;29.90;19.60;;;;;;20920059;28;20048;-67
2021/07/01 21:18:56;;;;;;;4.95;2.28;;;29.60;19.80;;;;;;20919544;28;20566;-65
2021/07/01 21:28:57;;;;;;;3.97;2.40;;;29.60;20.10;;;;;;20917915;28;20064;-58
2021/07/01 21:38:59;;;;;;;4.53;3.10;;;29.30;20.60;;;;;;20918012;28;20501;-59
2021/07/01 21:49:02;;;;;;;4.90;2.65;;;29.00;20.70;;;;;;20916455;28;20056;-64
2021/07/01 21:59:05;;;;;;;5.07;3.00;;;28.80;20.90;;;;;;20915529;28;20056;-67
2021/07/01 22:09:08;;;;;;;9.90;3.85;;;28.50;21.30;;;;;;20915388;28;20057;-65
2021/07/01 22:29:23;;;;;;;3.72;2.80;;;28.10;22.20;;;;;;20914206;28;20055;-61
2021/07/01 22:39:25;;;;;;;5.40;2.85;;;27.80;22.60;;;;;;20913180;28;20041;-67
2021/07/01 22:49:28;;;;;;;13.80;10.45;;;27.60;23.00;;;;;;20913633;28;20114;-66
2021/07/01 22:59:29;;;;;;;11.20;7.63;;;27.40;23.40;;;;;;20912891;28;20045;-65
2021/07/01 23:09:32;;;;;;;6.78;5.07;;;27.30;23.50;;;;;;20911516;28;20056;-66
2021/07/01 23:19:33;;;;;;;6.10;3.80;;;27.20;23.70;;;;;;20919166;28;20080;-57
2021/07/01 23:29:35;;;;;;;5.15;2.85;;;27.10;24.00;;;;;;20927061;28;20048;-59
2021/07/01 23:39:37;;;;;;;6.68;3.97;;;26.90;24.10;;;;;;20926976;28;20057;-65
2021/07/01 23:49:38;;;;;;;8.27;4.45;;;26.70;24.30;;;;;;20925545;28;20049;-60
2021/07/01 23:59:40;;;;;;;8.43;7.05;;;26.60;24.40;;;;;;20924795;28;20084;-65
